This is the latest recevied weather packets stored in our database for station/object DL3CK-10. If no packets are shown the sender has not sent any weather packets the latest 1 day(s).
| Time | Temp. | Humidity | Pressure | Rain* | Wind** | Luminosity | Snow |
|---|---|---|---|---|---|---|---|
| 1836274486 | 12.78° C | 79% | 1019.2 hPa | 0 mm | 0 m/s | - | - |
| 1836274336 | 12.78° C | 79% | 1019.5 hPa | 0 mm | 0 m/s | - | - |
| 1778019305 | 15° C | 71% | 1005.3 hPa | 0 mm | 0 m/s | - | - |
| 1778015706 | 15° C | 70% | 1005.6 hPa | 0 mm | 0 m/s | - | - |
| 1778012106 | 15.56° C | 69% | 1004.8 hPa | 0 mm | 0 m/s | - | - |
| 1778008506 | 16.11° C | 67% | 1004.1 hPa | 0 mm | 0 m/s | - | - |
| 1778004906 | 17.22° C | 65% | 1003.4 hPa | 0 mm | 0 m/s | - | - |
| 1778001306 | 17.22° C | 64% | 1003.4 hPa | 0 mm | 0 m/s | - | - |
| 1777997706 | 17.78° C | 62% | 1003.3 hPa | 0 mm | 0 m/s | - | - |
| 1777994106 | 19.44° C | 59% | 1003 hPa | 0 mm | 0 m/s | - | - |
| 1777990506 | 23.89° C | 39% | 1002.2 hPa | 0 mm | 0 m/s | - | - |
| 1777986906 | 26.11° C | 37% | 1002.6 hPa | 0 mm | 0 m/s | - | - |
| 1777983306 | 28.33° C | 35% | 1002.8 hPa | 0 mm | 0 m/s | - | - |
| 1777979706 | 28.89° C | 37% | 1003.7 hPa | 0 mm | 0 m/s | - | - |
| 1777976107 | 26.67° C | 45% | 1004.5 hPa | 0 mm | 0 m/s | - | - |
| 1777972507 | 24.44° C | 52% | 1005.1 hPa | 0 mm | 0 m/s | - | - |
| 1777968907 | 22.22° C | 57% | 1005.4 hPa | 0 mm | 0 m/s | - | - |
| 1777965307 | 17.78° C | 68% | 1005.4 hPa | 0 mm | 0 m/s | - | - |
| 1777961707 | 14.44° C | 76% | 1006.1 hPa | 0 mm | 0 m/s | - | - |
| 1777958107 | 13.33° C | 76% | 1006.3 hPa | 0 mm | 0 m/s | - | - |
| 1777954507 | 13.33° C | 76% | 1006.1 hPa | 0 mm | 0 m/s | - | - |
| 1777950907 | 13.89° C | 74% | 1006.3 hPa | 0 mm | 0 m/s | - | - |
| 1777947307 | 14.44° C | 74% | 1006.6 hPa | 0 mm | 0 m/s | - | - |
| 1777943707 | 15.56° C | 72% | 1006.7 hPa | 0 mm | 0 m/s | - | - |
| 1777940107 | 16.67° C | 68% | 1007.3 hPa | 0 mm | 0 m/s | - | - |
* Rain latest hour (hover to see other rain measurements)
** Current wind speed in m/s (hover to see current wind gust speed)